createdAt,value
2022-12-11T00:11:32.144Z,97879.69
2022-12-11T00:14:00.443Z,97873.11
2022-12-11T00:16:28.810Z,97870.39
2022-12-11T00:18:59.470Z,97868.14
2022-12-11T00:21:27.703Z,97865.39
2022-12-11T00:23:55.643Z,97862.98
2022-12-11T00:26:23.672Z,97869.52
2022-12-11T00:28:56.984Z,97865.77
2022-12-11T00:31:27.597Z,97866.62
2022-12-11T00:33:55.645Z,97869.76
2022-12-11T00:36:25.738Z,97874.39
2022-12-11T00:38:54.132Z,97879.62
2022-12-11T00:41:22.849Z,97885.52
2022-12-11T00:43:50.986Z,97888.41
2022-12-11T00:46:19.672Z,97891.27
2022-12-11T00:48:49.693Z,97893.11
2022-12-11T00:51:17.825Z,97896.51
2022-12-11T00:53:46.760Z,97898.23
2022-12-11T00:56:18.202Z,97900.99
2022-12-11T00:58:48.126Z,97900.92
2022-12-11T01:01:17.765Z,97905.27
2022-12-11T01:03:45.548Z,97908.86
2022-12-11T01:06:17.266Z,97915.84
2022-12-11T01:08:46.337Z,97922.11
2022-12-11T01:11:17.056Z,97928.29
2022-12-11T01:13:46.532Z,97925.46
2022-12-11T01:16:15.977Z,97924.03
2022-12-11T01:18:44.145Z,97924.84
2022-12-11T01:21:13.358Z,97922.98
2022-12-11T01:23:41.512Z,97926.61
2022-12-11T01:26:11.453Z,97928.13
2022-12-11T01:28:40.937Z,97926.14
2022-12-11T01:31:14.534Z,97918.41
2022-12-11T01:33:43.115Z,97913.66
2022-12-11T01:36:18.675Z,97916.11
2022-12-11T01:38:48.081Z,97906.42
2022-12-11T01:41:17.481Z,97903.58
2022-12-11T01:44:04.041Z,97898.66
2022-12-11T01:46:35.148Z,97895.16
2022-12-11T01:49:07.662Z,97895.12
2022-12-11T01:51:40.200Z,97896.74
2022-12-11T01:54:11.809Z,97898.11
2022-12-11T01:56:41.763Z,97900.02
2022-12-11T01:59:09.930Z,97898.21
2022-12-11T02:01:47.167Z,97895.69
2022-12-11T02:04:16.252Z,97893.57
2022-12-11T02:06:50.327Z,97892.38
2022-12-11T02:09:32.060Z,97890.76
2022-12-11T02:12:30.875Z,97889.83
2022-12-11T02:15:31.100Z,97888.14
2022-12-11T02:18:21.728Z,97887.36
2022-12-11T02:21:02.816Z,97880.66
2022-12-11T02:23:39.655Z,97877.39
2022-12-11T02:26:22.276Z,97877.98
2022-12-11T02:28:57.428Z,97872.41
2022-12-11T02:31:44.036Z,97879.77
2022-12-11T02:34:21.044Z,97876.49
2022-12-11T02:36:54.192Z,97881.35
2022-12-11T02:39:23.660Z,97882.77
2022-12-11T02:41:54.359Z,97884.67
2022-12-11T02:44:27.510Z,97881.73
2022-12-11T02:46:56.579Z,97883.31
2022-12-11T02:49:26.486Z,97882.66
2022-12-11T02:51:56.615Z,97888.79
2022-12-11T02:54:31.690Z,97890.88
2022-12-11T02:57:15.129Z,97891.36
2022-12-11T02:59:45.440Z,97889.92
2022-12-11T03:02:15.489Z,97886.80
2022-12-11T03:04:44.545Z,97878.10
2022-12-11T03:07:17.814Z,97873.09
2022-12-11T03:09:48.477Z,97871.58
2022-12-11T03:12:27.195Z,97870.91
2022-12-11T03:14:55.829Z,97864.25
2022-12-11T03:17:29.607Z,97859.95
2022-12-11T03:20:13.525Z,97865.73
2022-12-11T03:22:57.615Z,97869.36
2022-12-11T03:25:55.953Z,97869.17
2022-12-11T03:28:46.505Z,97875.44
2022-12-11T03:31:31.859Z,97874.57
2022-12-11T03:34:04.564Z,97866.65
2022-12-11T03:36:44.153Z,97870.85
2022-12-11T03:39:45.105Z,97874.52
2022-12-11T03:42:16.538Z,97874.09
2022-12-11T03:44:57.769Z,97870.99
2022-12-11T03:47:28.286Z,97871.48
2022-12-11T03:50:08.389Z,97868.02
2022-12-11T03:52:45.602Z,97862.07
2022-12-11T03:55:16.840Z,97854.98
2022-12-11T03:57:44.869Z,97854.56
2022-12-11T04:00:20.633Z,97852.90
2022-12-11T04:03:13.530Z,97857.64
2022-12-11T04:05:47.275Z,97860.06
2022-12-11T04:08:16.751Z,97864.92
2022-12-11T04:10:44.650Z,97864.09
2022-12-11T04:13:12.526Z,97855.90
2022-12-11T04:15:41.678Z,97855.17
2022-12-11T04:18:31.508Z,97855.23
2022-12-11T04:21:39.094Z,97859.81
2022-12-11T04:24:29.974Z,97860.42
2022-12-11T04:26:58.892Z,97856.40
2022-12-11T04:29:42.065Z,97854.66
2022-12-11T04:32:20.341Z,97857.36
2022-12-11T04:34:48.009Z,97857.57
2022-12-11T04:37:16.864Z,97852.55
2022-12-11T04:39:44.480Z,97842.30
2022-12-11T04:42:12.138Z,97841.13
2022-12-11T04:44:40.699Z,97846.63
2022-12-11T04:47:08.264Z,97848.39
2022-12-11T04:49:39.441Z,97846.31
2022-12-11T04:52:08.122Z,97845.16
2022-12-11T04:54:35.742Z,97845.08
2022-12-11T04:57:04.334Z,97843.65
2022-12-11T04:59:33.784Z,97845.14
2022-12-11T05:02:01.468Z,97841.05
2022-12-11T05:04:36.374Z,97845.69
2022-12-11T05:07:04.293Z,97838.95
2022-12-11T05:09:33.130Z,97833.20
2022-12-11T05:12:03.046Z,97828.65
2022-12-11T05:14:32.294Z,97825.31
2022-12-11T05:16:59.939Z,97826.73
2022-12-11T05:19:27.858Z,97825.71
2022-12-11T05:21:55.938Z,97825.74
2022-12-11T05:24:23.531Z,97831.74
2022-12-11T05:26:51.344Z,97836.18
2022-12-11T05:29:19.889Z,97833.77
2022-12-11T05:31:47.586Z,97836.58
2022-12-11T05:34:16.879Z,97831.74
2022-12-11T05:36:45.005Z,97830.89
2022-12-11T05:39:13.055Z,97829.27
2022-12-11T05:41:41.021Z,97829.09
2022-12-11T05:44:12.700Z,97828.16
2022-12-11T05:46:40.502Z,97828.61
2022-12-11T05:49:10.607Z,97823.39
2022-12-11T05:51:41.128Z,97830.63
2022-12-11T05:54:09.721Z,97832.58
2022-12-11T05:56:38.018Z,97835.28
2022-12-11T05:59:06.944Z,97836.55
2022-12-11T06:01:50.019Z,97832.42
2022-12-11T06:04:18.362Z,97833.81
2022-12-11T06:06:46.449Z,97837.13
2022-12-11T06:09:17.075Z,97837.05
2022-12-11T06:11:45.483Z,97836.77
2022-12-11T06:14:14.113Z,97838.65
2022-12-11T06:16:42.457Z,97839.39
2022-12-11T06:19:18.259Z,97839.17
2022-12-11T06:21:48.902Z,97841.98
2022-12-11T06:24:16.743Z,97835.04
2022-12-11T06:26:44.313Z,97838.85
2022-12-11T06:29:13.233Z,97838.90
2022-12-11T06:31:41.328Z,97842.09
2022-12-11T06:34:13.906Z,97844.46
2022-12-11T06:36:41.272Z,97849.89
2022-12-11T06:39:09.361Z,97857.73
2022-12-11T06:41:38.023Z,97854.60
2022-12-11T06:44:05.501Z,97853.99
2022-12-11T06:46:33.426Z,97855.19
2022-12-11T06:49:01.525Z,97862.85
2022-12-11T06:51:29.237Z,97859.95
2022-12-11T06:53:57.398Z,97859.45
2022-12-11T06:56:26.679Z,97859.03
2022-12-11T06:58:55.150Z,97857.41
2022-12-11T07:01:25.913Z,97858.27
2022-12-11T07:03:55.377Z,97852.73
2022-12-11T07:06:24.589Z,97854.13
2022-12-11T07:08:52.921Z,97861.17
2022-12-11T07:11:30.536Z,97858.08
2022-12-11T07:14:07.016Z,97856.61
2022-12-11T07:16:37.958Z,97865.06
2022-12-11T07:19:13.432Z,97869.65
2022-12-11T07:21:43.666Z,97869.71
2022-12-11T07:24:11.802Z,97870.27
2022-12-11T07:26:44.737Z,97873.35
2022-12-11T07:29:21.962Z,97878.63
2022-12-11T07:31:50.487Z,97876.98
2022-12-11T07:34:18.789Z,97881.98
2022-12-11T07:36:47.406Z,97885.08
2022-12-11T07:39:18.348Z,97878.95
2022-12-11T07:41:46.717Z,97882.48
2022-12-11T07:44:15.779Z,97884.23
2022-12-11T07:46:43.130Z,97882.17
2022-12-11T07:49:10.924Z,97882.73
2022-12-11T07:51:38.302Z,97876.79
2022-12-11T07:54:08.805Z,97880.70
2022-12-11T07:56:36.348Z,97883.88
2022-12-11T07:59:05.037Z,97883.10
2022-12-11T08:01:36.330Z,97884.65
2022-12-11T08:04:07.375Z,97888.42
2022-12-11T08:06:38.592Z,97885.16
2022-12-11T08:09:13.633Z,97884.42
2022-12-11T08:11:49.485Z,97883.76
2022-12-11T08:14:17.523Z,97882.27
2022-12-11T08:17:10.003Z,97879.38
2022-12-11T08:19:37.641Z,97882.74
2022-12-11T08:22:11.351Z,97887.34
2022-12-11T08:24:43.180Z,97892.70
2022-12-11T08:27:13.232Z,97895.86
2022-12-11T08:29:40.559Z,97894.30
2022-12-11T08:32:12.299Z,97892.15
2022-12-11T08:34:40.603Z,97892.96
2022-12-11T08:37:08.380Z,97894.48
2022-12-11T08:39:36.125Z,97889.55
2022-12-11T08:42:03.821Z,97888.19
2022-12-11T08:44:31.301Z,97887.08
2022-12-11T08:46:58.795Z,97882.77
2022-12-11T08:49:29.874Z,97881.77
2022-12-11T08:52:03.123Z,97879.86
2022-12-11T08:54:31.147Z,97881.04
2022-12-11T08:56:58.570Z,97885.72
2022-12-11T08:59:40.878Z,97892.15
2022-12-11T09:02:12.148Z,97894.80
2022-12-11T09:04:41.639Z,97895.77
2022-12-11T09:07:18.997Z,97899.40
2022-12-11T09:09:56.820Z,97900.29
2022-12-11T09:12:24.361Z,97895.42
2022-12-11T09:14:52.970Z,97888.58
2022-12-11T09:17:20.659Z,97881.71
2022-12-11T09:19:48.371Z,97878.21
2022-12-11T09:22:16.377Z,97871.71
2022-12-11T09:24:50.031Z,97867.23
2022-12-11T09:27:17.688Z,97867.27
2022-12-11T09:29:47.026Z,97870.05
2022-12-11T09:32:15.128Z,97866.33
2022-12-11T09:34:57.076Z,97866.56
2022-12-11T09:37:25.289Z,97866.23
2022-12-11T09:39:55.945Z,97864.34
2022-12-11T09:42:35.570Z,97858.20
2022-12-11T09:45:06.497Z,97852.04
2022-12-11T09:47:50.137Z,97847.35
2022-12-11T09:50:34.866Z,97852.56
2022-12-11T09:53:34.305Z,97844.52
2022-12-11T09:56:17.415Z,97845.34
2022-12-11T09:58:47.819Z,97837.75
2022-12-11T10:01:34.556Z,97839.30
2022-12-11T10:04:26.123Z,97832.94
2022-12-11T10:07:14.329Z,97834.60
2022-12-11T10:09:59.537Z,97836.72
2022-12-11T10:13:21.508Z,97835.80
2022-12-11T10:16:21.776Z,97829.96
2022-12-11T10:19:04.702Z,97823.34
2022-12-11T10:21:40.682Z,97818.27
2022-12-11T10:25:10.173Z,97817.71
2022-12-11T10:27:35.056Z,97816.94
2022-12-11T10:30:22.961Z,97809.59
2022-12-11T10:33:12.270Z,97805.09
2022-12-11T10:35:41.432Z,97798.96
2022-12-11T10:38:40.339Z,97797.30
2022-12-11T10:41:17.099Z,97798.11
2022-12-11T10:43:50.536Z,97800.32
2022-12-11T10:46:32.626Z,97802.77
2022-12-11T10:49:01.014Z,97804.10
2022-12-11T10:51:31.662Z,97799.15
2022-12-11T10:54:11.558Z,97799.98
2022-12-11T10:56:39.256Z,97794.54
2022-12-11T10:59:06.843Z,97792.79
2022-12-11T11:01:34.611Z,97787.39
2022-12-11T11:04:15.813Z,97785.33
2022-12-11T11:06:44.042Z,97781.77
2022-12-11T11:09:34.015Z,97779.98
2022-12-11T11:12:07.705Z,97779.34
2022-12-11T11:14:35.707Z,97776.52
2022-12-11T11:17:04.544Z,97770.21
2022-12-11T11:19:36.731Z,97763.48
2022-12-11T11:22:14.779Z,97761.55
2022-12-11T11:24:57.500Z,97761.67
2022-12-11T11:27:35.695Z,97762.77
2022-12-11T11:30:17.052Z,97760.70
2022-12-11T11:32:45.200Z,97755.17
2022-12-11T11:35:12.681Z,97756.64
2022-12-11T11:37:44.875Z,97749.88
2022-12-11T11:40:23.091Z,97749.66
2022-12-11T11:43:04.954Z,97745.26
2022-12-11T11:45:52.391Z,97750.73
2022-12-11T11:48:44.496Z,97750.37
2022-12-11T11:51:26.908Z,97753.80
2022-12-11T11:54:02.076Z,97748.70
2022-12-11T11:56:37.246Z,97749.94
2022-12-11T11:59:24.654Z,97753.12
2022-12-11T12:01:56.418Z,97749.23
2022-12-11T12:04:30.524Z,97748.27
2022-12-11T12:07:20.509Z,97748.98
2022-12-11T12:10:01.537Z,97745.67
2022-12-11T12:12:56.630Z,97743.61
2022-12-11T12:15:26.152Z,97744.81
2022-12-11T12:18:22.256Z,97745.14
2022-12-11T12:21:08.444Z,97743.35
2022-12-11T12:23:56.967Z,97737.95
2022-12-11T12:26:35.441Z,97737.85
2022-12-11T12:29:32.170Z,97741.23
2022-12-11T12:32:13.014Z,97745.77
2022-12-11T12:35:07.630Z,97747.91
2022-12-11T12:38:01.836Z,97740.39
2022-12-11T12:40:35.756Z,97746.80
2022-12-11T12:43:26.253Z,97742.73
2022-12-11T12:46:30.943Z,97740.54
2022-12-11T12:49:00.080Z,97734.12
2022-12-11T12:51:29.911Z,97734.19
2022-12-11T12:54:00.016Z,97732.39
2022-12-11T12:56:32.506Z,97727.39
2022-12-11T12:59:00.615Z,97724.92
2022-12-11T13:01:30.678Z,97725.79
2022-12-11T13:04:02.861Z,97726.27
2022-12-11T13:06:34.683Z,97729.48
2022-12-11T13:09:21.804Z,97726.77
2022-12-11T13:11:56.380Z,97729.89
2022-12-11T13:14:36.715Z,97733.95
2022-12-11T13:17:05.646Z,97726.39
2022-12-11T13:19:40.624Z,97726.33
2022-12-11T13:22:23.013Z,97729.38
2022-12-11T13:25:03.869Z,97733.42
2022-12-11T13:27:31.550Z,97735.80
2022-12-11T13:30:15.109Z,97739.13
2022-12-11T13:33:02.789Z,97738.87
2022-12-11T13:35:33.439Z,97735.85
2022-12-11T13:38:17.253Z,97738.63
2022-12-11T13:40:49.835Z,97738.73
2022-12-11T13:43:22.207Z,97739.77
2022-12-11T13:45:53.860Z,97740.20
2022-12-11T13:49:06.874Z,97736.66
2022-12-11T13:51:37.169Z,97738.39
2022-12-11T13:54:18.012Z,97736.25
2022-12-11T13:57:08.952Z,97737.48
2022-12-11T13:59:41.754Z,97734.92
2022-12-11T14:02:38.951Z,97737.52
2022-12-11T14:05:11.401Z,97739.40
2022-12-11T14:07:51.981Z,97739.23
2022-12-11T14:10:28.310Z,97734.55
2022-12-11T14:13:22.294Z,97735.99
2022-12-11T14:15:51.967Z,97728.53
2022-12-11T14:18:32.237Z,97732.36
2022-12-11T14:21:13.742Z,97731.38
2022-12-11T14:23:50.668Z,97736.86
2022-12-11T14:26:27.383Z,97739.10
2022-12-11T14:28:55.651Z,97741.52
2022-12-11T14:31:43.929Z,97742.22
2022-12-11T14:34:22.015Z,97742.50
2022-12-11T14:36:50.389Z,97738.10
2022-12-11T14:39:24.059Z,97740.33
2022-12-11T14:42:04.337Z,97739.14
2022-12-11T14:44:43.394Z,97732.48
2022-12-11T14:47:16.633Z,97740.23
2022-12-11T14:50:22.839Z,97733.98
2022-12-11T14:52:58.113Z,97733.68
2022-12-11T14:55:32.953Z,97730.08
2022-12-11T14:58:11.710Z,97735.65
2022-12-11T15:00:39.780Z,97735.01
2022-12-11T15:03:17.084Z,97738.06
2022-12-11T15:05:53.596Z,97738.82
2022-12-11T15:08:30.629Z,97741.08
2022-12-11T15:11:15.386Z,97738.96
2022-12-11T15:13:58.347Z,97738.72
2022-12-11T15:16:29.141Z,97743.12
2022-12-11T15:18:58.425Z,97738.33
2022-12-11T15:21:34.931Z,97738.08
2022-12-11T15:24:07.917Z,97739.27
2022-12-11T15:26:44.793Z,97742.23
2022-12-11T15:29:36.557Z,97741.96
2022-12-11T15:32:13.784Z,97743.36
2022-12-11T15:34:49.728Z,97746.38
2022-12-11T15:37:24.399Z,97746.08
2022-12-11T15:39:53.196Z,97741.81
2022-12-11T15:42:23.792Z,97746.36
2022-12-11T15:44:53.099Z,97746.76
2022-12-11T15:47:27.548Z,97744.85
2022-12-11T15:49:59.776Z,97744.76
2022-12-11T15:52:35.027Z,97745.80
2022-12-11T15:55:05.749Z,97747.73
2022-12-11T15:57:34.282Z,97742.83
2022-12-11T16:00:01.690Z,97738.24
2022-12-11T16:02:33.054Z,97738.58
2022-12-11T16:05:01.203Z,97743.48
2022-12-11T16:07:28.502Z,97746.39
2022-12-11T16:09:56.158Z,97749.72
2022-12-11T16:12:24.228Z,97750.80
2022-12-11T16:14:52.103Z,97752.72
2022-12-11T16:17:19.686Z,97752.38
2022-12-11T16:19:47.616Z,97754.92
2022-12-11T16:22:16.668Z,97748.60
2022-12-11T16:24:48.099Z,97745.70
2022-12-11T16:27:21.403Z,97747.36
2022-12-11T16:29:51.288Z,97746.55
2022-12-11T16:32:20.820Z,97744.57
2022-12-11T16:34:48.220Z,97745.46
2022-12-11T16:37:16.076Z,97744.40
2022-12-11T16:39:48.467Z,97744.60
2022-12-11T16:42:15.919Z,97742.29
2022-12-11T16:44:48.045Z,97746.04
2022-12-11T16:47:18.752Z,97742.52
2022-12-11T16:49:46.508Z,97740.83
2022-12-11T16:52:18.989Z,97735.84
2022-12-11T16:54:49.882Z,97732.30
2022-12-11T16:57:17.234Z,97730.55
2022-12-11T16:59:44.659Z,97726.77
2022-12-11T17:02:13.003Z,97725.98
2022-12-11T17:04:41.815Z,97729.70
2022-12-11T17:07:09.262Z,97728.32
2022-12-11T17:09:38.109Z,97728.92
2022-12-11T17:12:05.717Z,97730.73
2022-12-11T17:14:33.051Z,97725.61
2022-12-11T17:17:01.257Z,97728.87
2022-12-11T17:19:28.548Z,97729.88
2022-12-11T17:21:56.807Z,97733.45
2022-12-11T17:24:24.712Z,97733.64
2022-12-11T17:26:52.477Z,97734.23
2022-12-11T17:29:20.880Z,97736.48
2022-12-11T17:31:48.655Z,97738.83
2022-12-11T17:34:15.987Z,97734.02
2022-12-11T17:36:43.645Z,97732.52
2022-12-11T17:39:11.736Z,97734.79
2022-12-11T17:41:39.099Z,97731.14
2022-12-11T17:44:06.441Z,97735.33
2022-12-11T17:46:34.587Z,97733.19
2022-12-11T17:49:04.441Z,97733.04
2022-12-11T17:51:44.966Z,97731.52
2022-12-11T17:54:12.696Z,97735.37
2022-12-11T17:56:40.731Z,97730.87
2022-12-11T17:59:08.179Z,97730.96
2022-12-11T18:01:36.567Z,97732.16
2022-12-11T18:04:14.165Z,97736.08
2022-12-11T18:06:54.298Z,97733.73
2022-12-11T18:09:42.196Z,97734.50
2022-12-11T18:12:25.581Z,97731.76
2022-12-11T18:15:12.687Z,97732.80
2022-12-11T18:17:55.815Z,97734.58
2022-12-11T18:20:38.125Z,97733.98
2022-12-11T18:23:17.114Z,97732.87
2022-12-11T18:26:03.472Z,97730.69
2022-12-11T18:28:46.934Z,97730.70
2022-12-11T18:31:33.106Z,97733.50
2022-12-11T18:34:16.190Z,97736.91
2022-12-11T18:36:48.014Z,97737.91
2022-12-11T18:39:21.924Z,97731.82
2022-12-11T18:42:32.903Z,97738.41
2022-12-11T18:45:15.782Z,97737.98
2022-12-11T18:47:58.869Z,97738.70
2022-12-11T18:50:40.285Z,97738.48
2022-12-11T18:56:31.637Z,97738.83
2022-12-11T18:59:30.849Z,97737.09
2022-12-11T19:02:38.967Z,97738.96
2022-12-11T19:05:31.894Z,97739.08
2022-12-11T19:08:25.063Z,97738.00
2022-12-11T19:11:45.990Z,97740.61
2022-12-11T19:14:28.978Z,97737.92
2022-12-11T19:17:08.052Z,97741.02
2022-12-11T19:19:48.779Z,97743.34
2022-12-11T19:22:30.126Z,97744.27
2022-12-11T19:25:11.571Z,97734.66
2022-12-11T19:27:54.814Z,97730.42
2022-12-11T19:30:40.478Z,97728.56
2022-12-11T19:33:19.821Z,97725.16
2022-12-11T19:36:15.537Z,97725.53
2022-12-11T19:39:09.801Z,97725.71
2022-12-11T19:41:55.671Z,97721.87
2022-12-11T19:44:38.020Z,97718.44
2022-12-11T19:47:24.114Z,97718.02
2022-12-11T19:50:09.543Z,97719.61
2022-12-11T19:52:51.238Z,97720.98
2022-12-11T19:55:39.515Z,97719.54
2022-12-11T19:58:26.418Z,97715.52
2022-12-11T20:01:49.959Z,97715.16
2022-12-11T20:04:57.080Z,97715.11
2022-12-11T20:07:54.299Z,97719.05
2022-12-11T20:11:04.044Z,97718.20
2022-12-11T20:14:14.974Z,97714.42
2022-12-11T20:17:18.548Z,97716.40
2022-12-11T20:20:16.221Z,97713.66
2022-12-11T20:23:30.127Z,97708.57
2022-12-11T20:26:30.430Z,97707.93
2022-12-11T20:29:21.614Z,97705.23
2022-12-11T20:32:24.275Z,97705.58
2022-12-11T20:35:26.874Z,97707.40
2022-12-11T20:38:18.321Z,97702.98
2022-12-11T20:41:45.114Z,97704.36
2022-12-11T20:44:24.849Z,97702.85
2022-12-11T20:46:53.904Z,97697.15
2022-12-11T20:49:36.907Z,97697.34
2022-12-11T20:52:22.163Z,97694.27
2022-12-11T20:54:54.630Z,97691.72
2022-12-11T20:57:23.334Z,97696.46
2022-12-11T20:59:50.789Z,97699.38
2022-12-11T21:02:18.572Z,97702.63
2022-12-11T21:04:46.924Z,97700.02
2022-12-11T21:07:15.161Z,97700.02
2022-12-11T21:09:43.256Z,97699.29
2022-12-11T21:12:21.367Z,97698.77
2022-12-11T21:14:49.140Z,97699.49
2022-12-11T21:17:17.734Z,97699.98
2022-12-11T21:19:45.311Z,97696.19
2022-12-11T21:22:13.224Z,97697.03
2022-12-11T21:24:41.473Z,97695.33
2022-12-11T21:27:09.056Z,97696.77
2022-12-11T21:29:37.325Z,97694.92
2022-12-11T21:32:08.078Z,97697.30
2022-12-11T21:34:37.464Z,97698.94
2022-12-11T21:37:05.700Z,97700.48
2022-12-11T21:39:44.219Z,97700.42
2022-12-11T21:42:11.825Z,97697.95
2022-12-11T21:45:37.636Z,97698.43
2022-12-11T21:47:33.907Z,97699.67
2022-12-11T21:50:06.445Z,97700.17
2022-12-11T21:52:34.383Z,97700.39
2022-12-11T21:55:02.148Z,97697.48
2022-12-11T21:57:41.244Z,97695.59
2022-12-11T22:00:20.313Z,97693.84
2022-12-11T22:02:50.720Z,97697.54
2022-12-11T22:05:22.611Z,97696.17
2022-12-11T22:07:50.026Z,97687.65
2022-12-11T22:10:18.303Z,97692.73
2022-12-11T22:12:46.269Z,97688.07
2022-12-11T22:15:14.206Z,97687.38
2022-12-11T22:17:42.246Z,97686.21
2022-12-11T22:20:13.734Z,97687.84
2022-12-11T22:22:41.385Z,97688.22
2022-12-11T22:25:09.913Z,97685.91
2022-12-11T22:27:38.418Z,97687.55
2022-12-11T22:30:06.457Z,97685.63
2022-12-11T22:32:34.970Z,97684.95
2022-12-11T22:35:03.659Z,97680.73
2022-12-11T22:37:31.294Z,97683.77
2022-12-11T22:39:59.840Z,97684.66
2022-12-11T22:42:27.266Z,97685.38
2022-12-11T22:44:54.983Z,97686.81
2022-12-11T22:47:23.123Z,97684.75
2022-12-11T22:49:50.498Z,97686.80
2022-12-11T22:52:17.833Z,97684.39
2022-12-11T22:54:45.921Z,97686.08
2022-12-11T22:57:13.964Z,97684.36
2022-12-11T22:59:41.450Z,97681.36
2022-12-11T23:02:09.235Z,97680.88
2022-12-11T23:04:38.825Z,97678.52
2022-12-11T23:07:06.436Z,97680.94
2022-12-11T23:09:34.380Z,97681.42
2022-12-11T23:12:01.916Z,97679.11
2022-12-11T23:14:29.883Z,97677.10
2022-12-11T23:17:03.521Z,97676.36
2022-12-11T23:19:31.348Z,97672.21
2022-12-11T23:22:02.163Z,97669.75
2022-12-11T23:24:29.862Z,97668.29
2022-12-11T23:26:57.501Z,97669.54
2022-12-11T23:29:25.545Z,97670.83
2022-12-11T23:31:53.336Z,97666.04
2022-12-11T23:34:21.434Z,97668.75
2022-12-11T23:36:50.691Z,97672.88
2022-12-11T23:39:21.873Z,97672.23
2022-12-11T23:41:51.798Z,97668.86
2022-12-11T23:44:21.910Z,97670.13
2022-12-11T23:46:53.647Z,97671.30
2022-12-11T23:49:24.403Z,97671.61
2022-12-11T23:51:59.272Z,97669.04
2022-12-11T23:54:46.987Z,97677.45
2022-12-11T23:57:14.813Z,97674.61
2022-12-11T23:59:45.105Z,97674.52
